Accueil
METAR-TAF:

METAR-TAF

Aéroports :

Aéroport international de Nadi

Nadi, Fidji

latitude: 17-45S, longitude: 177-27E, altitude: 13 m

Observation

Le bulletin a été fait il y a 25 minutes, à 01:00 UTC
Vent 11 kt de ouest
Température 28°C
Humidité 55%
Pression 1014 hPa
Visibilité 10 km ou plus
Nuages épars à une hauteur de 3000 ft

METAR: NFFN 230100Z 28011KT 9999 SCT030 28/18 Q1014 NOSIG

Heure: 13:25 (01:25 UTC)

Prévision

Le bulletin a été fait il y a 2 heures et 3 minutes, à 23:22 UTC
Prévision valable du 23 à 00 UTC au 23 à 24 UTC
Vent 10 kt de nord-ouest
Visibilité 10 km ou plus
Quelques nuages à une hauteur de 3000 ft
Evoluant progressivement
du 23 à 04 UTC au 23 à 06 UTC
Vent 6 kt de est/sud-est
Evoluant progressivement
du 23 à 22 UTC au 23 à 24 UTC
Vent 10 kt de nord-ouest

TAF: NFFN 222322Z 2300/2324 31010KT 9999 FEW030 BECMG 2304/2306 12006KT BECMG 2322/2324 31010KT

Observations et prévisions météorologiques de plus de 4000 aéroports (messages METAR et TAF).

Les stations disponibles sont représentées par des disques jaunes et rouges sur la carte.

Passer la souris dessus pour voir le nom de la station.

Cliquer dessus pour voir les observations et prévisions météorologiques.

Pour changer de carte: cliquez sur les boutons verts avec une croix noire pour zoomer, sur le bouton vert avec un tiret pour effectuer un zoom arrière, ou sur les flèches vertes pour les cartes adjacentes.


METAR-TAF: